SKAR/AXM METAR and TAF weather

Enter ICAO airport designator
Station Type Date Time Source
SKAR METAR 2020/09/22 19:00 UTC NOAA

SKAR 221900Z 00000KT 9999 SCT025 SCT200 28/18 A2997


Station Type Date Time Source
SKAR Decoded METAR 2020/09/22 19:00 UTC NOAA

Armenia / El Eden, Colombia (SKAR) 04-30N 075-43W 1219M
Sep 22, 2020 - 03:00 PM EDT / 2020.09.22 1900 UTC
Wind: Calm:0
Visibility: greater than 7 mile(s):0
Sky conditions: partly cloudy
Temperature: 82 F (28 C)
Dew Point: 64 F (18 C)
Relative Humidity: 54%
Pressure (altimeter): 29.97 in. Hg (1014 hPa)
ob: SKAR 221900Z 00000KT 9999 SCT025 SCT200 28/18 A2997
cycle: 19

Station Type Date Time Source
SKAR TAF 2017/06/20 18:24 UTC NOAA

TAF TAF SKAR 201700Z 2018/2118 20006KT 9999 SCT023 BKN090
TEMPO 2021/2023 8000 VCSH SCT018TCU PROB40
TEMPO 2023/2101 7000 DZRA SCT017CB
BECMG 2101/2102 VRB02KT
TEMPO 2111/2113 7000 VCFG TX28/2019Z TN17/2111Z

Example: see airport list